sensor_id;sensor_type;location;lat;lon;timestamp;P1;durP1;ratioP1;P2;durP2;ratioP2
23179;SDS011;11758;45.756;11.432;2023-03-19T00:00:41;46.30;;;26.10;;
23179;SDS011;11758;45.756;11.432;2023-03-19T00:03:07;44.60;;;25.67;;
23179;SDS011;11758;45.756;11.432;2023-03-19T00:05:33;51.95;;;27.58;;
23179;SDS011;11758;45.756;11.432;2023-03-19T00:07:59;45.15;;;25.83;;
23179;SDS011;11758;45.756;11.432;2023-03-19T00:10:25;41.33;;;23.73;;
23179;SDS011;11758;45.756;11.432;2023-03-19T00:12:51;42.25;;;24.17;;
23179;SDS011;11758;45.756;11.432;2023-03-19T00:15:18;42.13;;;23.83;;
23179;SDS011;11758;45.756;11.432;2023-03-19T00:17:44;42.33;;;24.40;;
23179;SDS011;11758;45.756;11.432;2023-03-19T00:20:11;43.20;;;24.52;;
23179;SDS011;11758;45.756;11.432;2023-03-19T00:22:39;44.17;;;23.90;;
23179;SDS011;11758;45.756;11.432;2023-03-19T00:25:05;40.63;;;23.13;;
23179;SDS011;11758;45.756;11.432;2023-03-19T00:27:32;50.78;;;24.58;;
23179;SDS011;11758;45.756;11.432;2023-03-19T00:29:58;49.97;;;26.73;;
23179;SDS011;11758;45.756;11.432;2023-03-19T00:32:26;49.85;;;27.02;;
23179;SDS011;11758;45.756;11.432;2023-03-19T00:34:52;51.80;;;27.92;;
23179;SDS011;11758;45.756;11.432;2023-03-19T00:37:18;48.28;;;26.92;;
23179;SDS011;11758;45.756;11.432;2023-03-19T00:39:44;44.35;;;25.85;;
23179;SDS011;11758;45.756;11.432;2023-03-19T00:42:10;55.50;;;28.35;;
23179;SDS011;11758;45.756;11.432;2023-03-19T00:44:37;52.03;;;27.15;;
23179;SDS011;11758;45.756;11.432;2023-03-19T00:47:03;52.85;;;28.00;;
23179;SDS011;11758;45.756;11.432;2023-03-19T00:49:30;52.78;;;27.35;;
23179;SDS011;11758;45.756;11.432;2023-03-19T00:51:57;55.72;;;27.98;;
23179;SDS011;11758;45.756;11.432;2023-03-19T00:54:23;50.72;;;27.90;;
23179;SDS011;11758;45.756;11.432;2023-03-19T00:56:49;54.03;;;28.67;;
23179;SDS011;11758;45.756;11.432;2023-03-19T00:59:15;54.13;;;28.35;;
23179;SDS011;11758;45.756;11.432;2023-03-19T01:01:41;52.05;;;26.85;;
23179;SDS011;11758;45.756;11.432;2023-03-19T01:04:07;45.83;;;26.67;;
23179;SDS011;11758;45.756;11.432;2023-03-19T01:06:35;55.92;;;27.20;;
23179;SDS011;11758;45.756;11.432;2023-03-19T01:09:01;54.03;;;27.95;;
23179;SDS011;11758;45.756;11.432;2023-03-19T01:11:28;49.13;;;26.92;;
23179;SDS011;11758;45.756;11.432;2023-03-19T01:13:54;46.05;;;26.60;;
23179;SDS011;11758;45.756;11.432;2023-03-19T01:16:20;47.00;;;25.85;;
23179;SDS011;11758;45.756;11.432;2023-03-19T01:18:46;54.15;;;28.20;;
23179;SDS011;11758;45.756;11.432;2023-03-19T01:21:12;45.58;;;25.60;;
23179;SDS011;11758;45.756;11.432;2023-03-19T01:23:39;52.03;;;27.40;;
23179;SDS011;11758;45.756;11.432;2023-03-19T01:26:05;52.47;;;27.58;;
23179;SDS011;11758;45.756;11.432;2023-03-19T01:28:32;49.95;;;28.27;;
23179;SDS011;11758;45.756;11.432;2023-03-19T01:30:59;47.08;;;27.00;;
23179;SDS011;11758;45.756;11.432;2023-03-19T01:33:26;54.78;;;26.95;;
23179;SDS011;11758;45.756;11.432;2023-03-19T01:35:52;47.88;;;26.15;;
23179;SDS011;11758;45.756;11.432;2023-03-19T01:38:18;48.88;;;26.42;;
23179;SDS011;11758;45.756;11.432;2023-03-19T01:40:47;52.40;;;26.13;;
23179;SDS011;11758;45.756;11.432;2023-03-19T01:43:20;50.17;;;26.15;;
23179;SDS011;11758;45.756;11.432;2023-03-19T01:45:48;53.75;;;27.88;;
23179;SDS011;11758;45.756;11.432;2023-03-19T01:48:17;49.47;;;27.15;;
23179;SDS011;11758;45.756;11.432;2023-03-19T01:50:44;49.80;;;25.75;;
23179;SDS011;11758;45.756;11.432;2023-03-19T01:53:12;53.03;;;27.00;;
23179;SDS011;11758;45.756;11.432;2023-03-19T01:55:40;47.67;;;25.55;;
23179;SDS011;11758;45.756;11.432;2023-03-19T01:58:06;50.17;;;27.60;;
23179;SDS011;11758;45.756;11.432;2023-03-19T02:00:33;51.20;;;27.98;;
23179;SDS011;11758;45.756;11.432;2023-03-19T02:03:00;49.17;;;26.92;;
23179;SDS011;11758;45.756;11.432;2023-03-19T02:05:27;45.55;;;25.50;;
23179;SDS011;11758;45.756;11.432;2023-03-19T02:07:55;57.42;;;27.30;;
23179;SDS011;11758;45.756;11.432;2023-03-19T02:10:21;51.03;;;26.15;;
23179;SDS011;11758;45.756;11.432;2023-03-19T02:12:48;50.72;;;26.40;;
23179;SDS011;11758;45.756;11.432;2023-03-19T02:15:14;52.58;;;27.70;;
23179;SDS011;11758;45.756;11.432;2023-03-19T02:17:40;57.10;;;26.75;;
23179;SDS011;11758;45.756;11.432;2023-03-19T02:20:18;49.25;;;25.67;;
23179;SDS011;11758;45.756;11.432;2023-03-19T02:25:34;49.20;;;27.70;;
23179;SDS011;11758;45.756;11.432;2023-03-19T02:28:02;47.13;;;25.98;;
23179;SDS011;11758;45.756;11.432;2023-03-19T02:30:30;49.83;;;25.67;;
23179;SDS011;11758;45.756;11.432;2023-03-19T02:32:57;49.03;;;25.00;;
23179;SDS011;11758;45.756;11.432;2023-03-19T02:35:23;54.65;;;26.10;;
23179;SDS011;11758;45.756;11.432;2023-03-19T02:37:50;47.67;;;25.98;;
23179;SDS011;11758;45.756;11.432;2023-03-19T02:42:42;49.25;;;26.77;;
23179;SDS011;11758;45.756;11.432;2023-03-19T02:45:09;48.35;;;25.13;;
23179;SDS011;11758;45.756;11.432;2023-03-19T02:47:35;49.97;;;25.92;;
23179;SDS011;11758;45.756;11.432;2023-03-19T02:50:01;49.05;;;24.45;;
23179;SDS011;11758;45.756;11.432;2023-03-19T02:52:27;48.78;;;26.48;;
23179;SDS011;11758;45.756;11.432;2023-03-19T02:54:53;44.35;;;25.13;;
23179;SDS011;11758;45.756;11.432;2023-03-19T02:57:20;50.95;;;24.85;;
23179;SDS011;11758;45.756;11.432;2023-03-19T02:59:46;40.97;;;23.75;;
23179;SDS011;11758;45.756;11.432;2023-03-19T03:02:12;42.80;;;22.65;;
23179;SDS011;11758;45.756;11.432;2023-03-19T03:04:39;43.78;;;21.10;;
23179;SDS011;11758;45.756;11.432;2023-03-19T03:07:05;40.90;;;21.55;;
23179;SDS011;11758;45.756;11.432;2023-03-19T03:09:32;37.95;;;21.52;;
23179;SDS011;11758;45.756;11.432;2023-03-19T03:11:58;46.90;;;21.13;;
23179;SDS011;11758;45.756;11.432;2023-03-19T03:14:25;38.50;;;20.58;;
23179;SDS011;11758;45.756;11.432;2023-03-19T03:16:51;37.25;;;18.13;;
23179;SDS011;11758;45.756;11.432;2023-03-19T03:19:17;34.78;;;18.90;;
23179;SDS011;11758;45.756;11.432;2023-03-19T03:21:43;38.47;;;20.08;;
23179;SDS011;11758;45.756;11.432;2023-03-19T03:24:09;40.70;;;21.90;;
23179;SDS011;11758;45.756;11.432;2023-03-19T03:26:35;50.90;;;24.17;;
23179;SDS011;11758;45.756;11.432;2023-03-19T03:29:05;42.28;;;21.38;;
23179;SDS011;11758;45.756;11.432;2023-03-19T03:31:31;34.97;;;18.15;;
23179;SDS011;11758;45.756;11.432;2023-03-19T03:33:57;44.17;;;21.20;;
23179;SDS011;11758;45.756;11.432;2023-03-19T03:36:23;40.65;;;21.73;;
23179;SDS011;11758;45.756;11.432;2023-03-19T03:38:51;37.95;;;20.70;;
23179;SDS011;11758;45.756;11.432;2023-03-19T03:41:17;35.10;;;18.50;;
23179;SDS011;11758;45.756;11.432;2023-03-19T03:43:43;31.70;;;18.08;;
23179;SDS011;11758;45.756;11.432;2023-03-19T03:46:10;38.55;;;19.70;;
23179;SDS011;11758;45.756;11.432;2023-03-19T03:48:36;37.53;;;20.52;;
23179;SDS011;11758;45.756;11.432;2023-03-19T03:51:02;32.92;;;19.08;;
23179;SDS011;11758;45.756;11.432;2023-03-19T03:53:28;32.08;;;18.40;;
23179;SDS011;11758;45.756;11.432;2023-03-19T03:55:54;31.10;;;17.35;;
23179;SDS011;11758;45.756;11.432;2023-03-19T03:58:21;31.98;;;17.50;;
23179;SDS011;11758;45.756;11.432;2023-03-19T04:00:48;40.33;;;21.67;;
23179;SDS011;11758;45.756;11.432;2023-03-19T04:03:14;34.70;;;19.15;;
23179;SDS011;11758;45.756;11.432;2023-03-19T04:05:42;37.70;;;19.90;;
23179;SDS011;11758;45.756;11.432;2023-03-19T04:08:08;30.85;;;18.90;;
23179;SDS011;11758;45.756;11.432;2023-03-19T04:10:34;35.65;;;19.63;;
23179;SDS011;11758;45.756;11.432;2023-03-19T04:13:01;33.45;;;18.92;;
23179;SDS011;11758;45.756;11.432;2023-03-19T04:15:27;35.10;;;20.08;;
23179;SDS011;11758;45.756;11.432;2023-03-19T04:17:54;35.05;;;20.13;;
23179;SDS011;11758;45.756;11.432;2023-03-19T04:20:20;40.03;;;21.88;;
23179;SDS011;11758;45.756;11.432;2023-03-19T04:22:47;40.13;;;21.60;;
23179;SDS011;11758;45.756;11.432;2023-03-19T04:25:13;32.67;;;19.02;;
23179;SDS011;11758;45.756;11.432;2023-03-19T04:27:39;35.55;;;20.67;;
23179;SDS011;11758;45.756;11.432;2023-03-19T04:30:06;41.83;;;20.63;;
23179;SDS011;11758;45.756;11.432;2023-03-19T04:32:32;39.38;;;19.73;;
23179;SDS011;11758;45.756;11.432;2023-03-19T04:34:59;34.15;;;20.80;;
23179;SDS011;11758;45.756;11.432;2023-03-19T04:37:25;32.33;;;19.85;;
23179;SDS011;11758;45.756;11.432;2023-03-19T04:39:51;34.90;;;19.85;;
23179;SDS011;11758;45.756;11.432;2023-03-19T04:42:18;37.60;;;20.13;;
23179;SDS011;11758;45.756;11.432;2023-03-19T04:44:44;41.42;;;21.38;;
23179;SDS011;11758;45.756;11.432;2023-03-19T04:47:11;37.92;;;21.45;;
23179;SDS011;11758;45.756;11.432;2023-03-19T04:49:37;37.15;;;21.73;;
23179;SDS011;11758;45.756;11.432;2023-03-19T04:52:04;32.75;;;18.25;;
23179;SDS011;11758;45.756;11.432;2023-03-19T04:54:31;35.75;;;19.33;;
23179;SDS011;11758;45.756;11.432;2023-03-19T04:56:58;38.67;;;21.25;;
23179;SDS011;11758;45.756;11.432;2023-03-19T04:59:24;41.50;;;22.42;;
23179;SDS011;11758;45.756;11.432;2023-03-19T05:01:51;31.00;;;19.50;;
23179;SDS011;11758;45.756;11.432;2023-03-19T05:04:17;38.03;;;22.80;;
23179;SDS011;11758;45.756;11.432;2023-03-19T05:06:43;35.70;;;21.48;;
23179;SDS011;11758;45.756;11.432;2023-03-19T05:09:09;36.55;;;22.05;;
23179;SDS011;11758;45.756;11.432;2023-03-19T05:11:36;39.22;;;21.20;;
23179;SDS011;11758;45.756;11.432;2023-03-19T05:14:02;38.58;;;21.15;;
23179;SDS011;11758;45.756;11.432;2023-03-19T05:16:28;36.92;;;20.67;;
23179;SDS011;11758;45.756;11.432;2023-03-19T05:18:54;39.67;;;21.27;;
23179;SDS011;11758;45.756;11.432;2023-03-19T05:21:20;36.80;;;20.52;;
23179;SDS011;11758;45.756;11.432;2023-03-19T05:23:46;35.40;;;20.83;;
23179;SDS011;11758;45.756;11.432;2023-03-19T05:26:16;38.88;;;21.65;;
23179;SDS011;11758;45.756;11.432;2023-03-19T05:28:42;36.63;;;21.55;;
23179;SDS011;11758;45.756;11.432;2023-03-19T05:31:08;36.22;;;22.05;;
23179;SDS011;11758;45.756;11.432;2023-03-19T05:33:35;40.55;;;22.90;;
23179;SDS011;11758;45.756;11.432;2023-03-19T05:36:01;36.85;;;20.88;;
23179;SDS011;11758;45.756;11.432;2023-03-19T05:38:27;34.10;;;19.02;;
23179;SDS011;11758;45.756;11.432;2023-03-19T05:40:53;36.53;;;19.85;;
23179;SDS011;11758;45.756;11.432;2023-03-19T05:43:19;33.10;;;20.45;;
23179;SDS011;11758;45.756;11.432;2023-03-19T05:45:49;34.65;;;19.75;;
23179;SDS011;11758;45.756;11.432;2023-03-19T05:48:16;33.85;;;20.02;;
23179;SDS011;11758;45.756;11.432;2023-03-19T05:50:42;36.58;;;19.58;;
23179;SDS011;11758;45.756;11.432;2023-03-19T05:53:09;32.53;;;19.02;;
23179;SDS011;11758;45.756;11.432;2023-03-19T05:55:35;32.70;;;18.98;;
23179;SDS011;11758;45.756;11.432;2023-03-19T05:58:01;30.90;;;18.15;;
23179;SDS011;11758;45.756;11.432;2023-03-19T06:00:28;31.33;;;19.00;;
23179;SDS011;11758;45.756;11.432;2023-03-19T06:02:54;36.08;;;20.33;;
23179;SDS011;11758;45.756;11.432;2023-03-19T06:05:20;41.00;;;21.35;;
23179;SDS011;11758;45.756;11.432;2023-03-19T06:07:46;44.15;;;24.45;;
23179;SDS011;11758;45.756;11.432;2023-03-19T06:10:12;49.70;;;25.70;;
23179;SDS011;11758;45.756;11.432;2023-03-19T06:12:38;49.28;;;26.67;;
23179;SDS011;11758;45.756;11.432;2023-03-19T06:15:05;47.05;;;26.23;;
23179;SDS011;11758;45.756;11.432;2023-03-19T06:17:31;47.17;;;25.98;;
23179;SDS011;11758;45.756;11.432;2023-03-19T06:19:57;48.50;;;25.00;;
23179;SDS011;11758;45.756;11.432;2023-03-19T06:22:23;44.17;;;24.90;;
23179;SDS011;11758;45.756;11.432;2023-03-19T06:24:50;46.35;;;24.70;;
23179;SDS011;11758;45.756;11.432;2023-03-19T06:27:16;44.15;;;23.80;;
23179;SDS011;11758;45.756;11.432;2023-03-19T06:29:42;47.35;;;25.02;;
23179;SDS011;11758;45.756;11.432;2023-03-19T06:32:08;46.97;;;27.05;;
23179;SDS011;11758;45.756;11.432;2023-03-19T06:34:34;47.70;;;25.55;;
23179;SDS011;11758;45.756;11.432;2023-03-19T06:37:01;45.33;;;25.33;;
23179;SDS011;11758;45.756;11.432;2023-03-19T06:39:27;49.72;;;27.75;;
23179;SDS011;11758;45.756;11.432;2023-03-19T06:41:53;50.42;;;26.50;;
23179;SDS011;11758;45.756;11.432;2023-03-19T06:44:19;49.03;;;25.80;;
23179;SDS011;11758;45.756;11.432;2023-03-19T06:46:45;43.25;;;24.60;;
23179;SDS011;11758;45.756;11.432;2023-03-19T06:49:12;42.40;;;23.48;;
23179;SDS011;11758;45.756;11.432;2023-03-19T06:51:38;40.35;;;22.23;;
23179;SDS011;11758;45.756;11.432;2023-03-19T06:54:04;39.38;;;23.73;;
23179;SDS011;11758;45.756;11.432;2023-03-19T06:56:30;49.85;;;26.10;;
23179;SDS011;11758;45.756;11.432;2023-03-19T06:58:56;38.95;;;23.00;;
23179;SDS011;11758;45.756;11.432;2023-03-19T07:01:23;42.55;;;23.15;;
23179;SDS011;11758;45.756;11.432;2023-03-19T07:03:49;41.35;;;23.85;;
23179;SDS011;11758;45.756;11.432;2023-03-19T07:06:15;45.17;;;25.33;;
23179;SDS011;11758;45.756;11.432;2023-03-19T07:08:41;44.95;;;25.85;;
23179;SDS011;11758;45.756;11.432;2023-03-19T07:11:10;46.08;;;24.52;;
23179;SDS011;11758;45.756;11.432;2023-03-19T07:13:36;42.55;;;24.50;;
23179;SDS011;11758;45.756;11.432;2023-03-19T07:16:03;42.28;;;24.67;;
23179;SDS011;11758;45.756;11.432;2023-03-19T07:18:29;40.38;;;23.77;;
23179;SDS011;11758;45.756;11.432;2023-03-19T07:20:55;40.03;;;23.85;;
23179;SDS011;11758;45.756;11.432;2023-03-19T07:23:21;45.60;;;24.55;;
23179;SDS011;11758;45.756;11.432;2023-03-19T07:25:47;44.45;;;26.30;;
23179;SDS011;11758;45.756;11.432;2023-03-19T07:28:14;44.70;;;25.23;;
23179;SDS011;11758;45.756;11.432;2023-03-19T07:30:40;47.80;;;25.88;;
23179;SDS011;11758;45.756;11.432;2023-03-19T07:33:07;48.97;;;27.50;;
23179;SDS011;11758;45.756;11.432;2023-03-19T07:35:33;46.28;;;26.58;;
23179;SDS011;11758;45.756;11.432;2023-03-19T07:38:00;47.15;;;25.13;;
23179;SDS011;11758;45.756;11.432;2023-03-19T07:40:26;44.28;;;25.17;;
23179;SDS011;11758;45.756;11.432;2023-03-19T07:42:53;46.95;;;25.65;;
23179;SDS011;11758;45.756;11.432;2023-03-19T07:45:20;44.65;;;24.63;;
23179;SDS011;11758;45.756;11.432;2023-03-19T07:47:48;49.35;;;27.40;;
23179;SDS011;11758;45.756;11.432;2023-03-19T07:50:15;51.38;;;26.70;;
23179;SDS011;11758;45.756;11.432;2023-03-19T07:52:44;42.90;;;27.00;;
23179;SDS011;11758;45.756;11.432;2023-03-19T07:55:10;49.35;;;27.77;;
23179;SDS011;11758;45.756;11.432;2023-03-19T07:57:37;45.08;;;28.30;;
23179;SDS011;11758;45.756;11.432;2023-03-19T08:00:03;51.95;;;29.65;;
23179;SDS011;11758;45.756;11.432;2023-03-19T08:02:29;44.67;;;24.25;;
23179;SDS011;11758;45.756;11.432;2023-03-19T08:04:55;50.28;;;28.10;;
23179;SDS011;11758;45.756;11.432;2023-03-19T08:07:22;49.08;;;28.05;;
23179;SDS011;11758;45.756;11.432;2023-03-19T08:09:49;46.42;;;27.63;;
23179;SDS011;11758;45.756;11.432;2023-03-19T08:12:16;71.68;;;39.95;;
23179;SDS011;11758;45.756;11.432;2023-03-19T08:14:42;46.15;;;27.98;;
23179;SDS011;11758;45.756;11.432;2023-03-19T08:17:08;37.83;;;22.75;;
23179;SDS011;11758;45.756;11.432;2023-03-19T08:19:34;42.60;;;24.55;;
23179;SDS011;11758;45.756;11.432;2023-03-19T08:22:00;42.75;;;24.42;;
23179;SDS011;11758;45.756;11.432;2023-03-19T08:24:26;41.00;;;25.45;;
23179;SDS011;11758;45.756;11.432;2023-03-19T08:26:53;44.30;;;26.20;;
23179;SDS011;11758;45.756;11.432;2023-03-19T08:29:19;41.75;;;24.55;;
23179;SDS011;11758;45.756;11.432;2023-03-19T08:31:45;45.95;;;25.85;;
23179;SDS011;11758;45.756;11.432;2023-03-19T08:34:11;44.53;;;24.92;;
23179;SDS011;11758;45.756;11.432;2023-03-19T08:36:37;49.65;;;26.73;;
23179;SDS011;11758;45.756;11.432;2023-03-19T08:39:03;45.25;;;27.02;;
23179;SDS011;11758;45.756;11.432;2023-03-19T08:41:30;47.78;;;26.65;;
23179;SDS011;11758;45.756;11.432;2023-03-19T08:43:56;46.75;;;27.98;;
23179;SDS011;11758;45.756;11.432;2023-03-19T08:46:22;44.47;;;25.40;;
23179;SDS011;11758;45.756;11.432;2023-03-19T08:48:49;44.88;;;25.50;;
23179;SDS011;11758;45.756;11.432;2023-03-19T08:51:15;50.22;;;27.40;;
23179;SDS011;11758;45.756;11.432;2023-03-19T08:53:41;38.65;;;25.38;;
23179;SDS011;11758;45.756;11.432;2023-03-19T08:56:08;42.70;;;26.45;;
23179;SDS011;11758;45.756;11.432;2023-03-19T08:58:34;39.30;;;24.60;;
23179;SDS011;11758;45.756;11.432;2023-03-19T09:01:04;45.20;;;26.38;;
23179;SDS011;11758;45.756;11.432;2023-03-19T09:06:15;43.88;;;26.08;;
23179;SDS011;11758;45.756;11.432;2023-03-19T09:08:41;41.58;;;25.35;;
23179;SDS011;11758;45.756;11.432;2023-03-19T09:11:08;47.63;;;26.95;;
23179;SDS011;11758;45.756;11.432;2023-03-19T09:13:35;46.95;;;26.48;;
23179;SDS011;11758;45.756;11.432;2023-03-19T09:16:01;41.05;;;24.33;;
23179;SDS011;11758;45.756;11.432;2023-03-19T09:18:27;40.05;;;25.00;;
23179;SDS011;11758;45.756;11.432;2023-03-19T09:20:54;43.22;;;25.70;;
23179;SDS011;11758;45.756;11.432;2023-03-19T09:23:20;44.80;;;26.05;;
23179;SDS011;11758;45.756;11.432;2023-03-19T09:25:47;47.47;;;26.25;;
23179;SDS011;11758;45.756;11.432;2023-03-19T09:28:13;39.30;;;26.35;;
23179;SDS011;11758;45.756;11.432;2023-03-19T09:30:39;41.80;;;26.65;;
23179;SDS011;11758;45.756;11.432;2023-03-19T09:33:05;41.10;;;26.10;;
23179;SDS011;11758;45.756;11.432;2023-03-19T09:35:32;48.25;;;27.35;;
23179;SDS011;11758;45.756;11.432;2023-03-19T09:37:58;45.28;;;26.83;;
23179;SDS011;11758;45.756;11.432;2023-03-19T09:40:33;43.55;;;26.15;;
23179;SDS011;11758;45.756;11.432;2023-03-19T09:45:30;49.25;;;27.40;;
23179;SDS011;11758;45.756;11.432;2023-03-19T09:48:01;52.13;;;26.85;;
23179;SDS011;11758;45.756;11.432;2023-03-19T09:50:31;47.53;;;28.83;;
23179;SDS011;11758;45.756;11.432;2023-03-19T09:53:19;43.35;;;26.58;;
23179;SDS011;11758;45.756;11.432;2023-03-19T09:55:49;45.42;;;27.55;;
23179;SDS011;11758;45.756;11.432;2023-03-19T10:00:43;46.42;;;27.23;;
23179;SDS011;11758;45.756;11.432;2023-03-19T10:08:36;41.45;;;26.50;;
23179;SDS011;11758;45.756;11.432;2023-03-19T10:16:06;50.42;;;27.95;;
23179;SDS011;11758;45.756;11.432;2023-03-19T10:18:36;43.22;;;26.63;;
23179;SDS011;11758;45.756;11.432;2023-03-19T10:21:10;51.55;;;30.05;;
23179;SDS011;11758;45.756;11.432;2023-03-19T10:26:07;49.05;;;28.92;;
23179;SDS011;11758;45.756;11.432;2023-03-19T10:28:34;46.15;;;27.05;;
23179;SDS011;11758;45.756;11.432;2023-03-19T10:34:20;46.65;;;27.02;;
23179;SDS011;11758;45.756;11.432;2023-03-19T10:36:26;49.13;;;26.75;;
23179;SDS011;11758;45.756;11.432;2023-03-19T10:38:55;47.97;;;29.50;;
23179;SDS011;11758;45.756;11.432;2023-03-19T10:41:37;49.75;;;29.52;;
23179;SDS011;11758;45.756;11.432;2023-03-19T10:44:09;55.90;;;28.50;;
23179;SDS011;11758;45.756;11.432;2023-03-19T10:46:40;46.53;;;26.95;;
23179;SDS011;11758;45.756;11.432;2023-03-19T10:49:10;46.75;;;28.38;;
23179;SDS011;11758;45.756;11.432;2023-03-19T10:51:37;51.85;;;28.20;;
23179;SDS011;11758;45.756;11.432;2023-03-19T10:54:14;43.95;;;27.50;;
23179;SDS011;11758;45.756;11.432;2023-03-19T10:56:44;45.42;;;25.80;;
23179;SDS011;11758;45.756;11.432;2023-03-19T11:01:56;38.72;;;25.33;;
23179;SDS011;11758;45.756;11.432;2023-03-19T11:04:23;44.70;;;26.10;;
23179;SDS011;11758;45.756;11.432;2023-03-19T11:06:52;41.00;;;25.17;;
23179;SDS011;11758;45.756;11.432;2023-03-19T11:14:15;42.22;;;26.38;;
23179;SDS011;11758;45.756;11.432;2023-03-19T11:16:55;38.38;;;24.10;;
23179;SDS011;11758;45.756;11.432;2023-03-19T11:19:25;38.83;;;23.52;;
23179;SDS011;11758;45.756;11.432;2023-03-19T11:22:14;38.03;;;22.50;;
23179;SDS011;11758;45.756;11.432;2023-03-19T11:24:39;36.85;;;23.90;;
23179;SDS011;11758;45.756;11.432;2023-03-19T11:27:08;40.28;;;24.10;;
23179;SDS011;11758;45.756;11.432;2023-03-19T11:29:37;37.10;;;22.77;;
23179;SDS011;11758;45.756;11.432;2023-03-19T11:40:25;33.78;;;20.58;;
23179;SDS011;11758;45.756;11.432;2023-03-19T11:50:38;38.13;;;21.48;;
23179;SDS011;11758;45.756;11.432;2023-03-19T12:00:59;31.48;;;18.73;;
23179;SDS011;11758;45.756;11.432;2023-03-19T12:12:04;32.33;;;20.45;;
23179;SDS011;11758;45.756;11.432;2023-03-19T12:16:39;36.65;;;19.70;;
23179;SDS011;11758;45.756;11.432;2023-03-19T12:22:18;31.63;;;19.92;;
23179;SDS011;11758;45.756;11.432;2023-03-19T12:27:36;31.73;;;20.35;;
23179;SDS011;11758;45.756;11.432;2023-03-19T12:30:11;34.35;;;19.52;;
23179;SDS011;11758;45.756;11.432;2023-03-19T12:35:19;37.00;;;21.15;;
23179;SDS011;11758;45.756;11.432;2023-03-19T12:40:19;27.00;;;18.33;;
23179;SDS011;11758;45.756;11.432;2023-03-19T12:42:47;28.00;;;18.45;;
23179;SDS011;11758;45.756;11.432;2023-03-19T12:48:03;27.98;;;18.50;;
23179;SDS011;11758;45.756;11.432;2023-03-19T12:50:33;30.20;;;19.20;;
23179;SDS011;11758;45.756;11.432;2023-03-19T12:53:02;34.33;;;19.13;;
23179;SDS011;11758;45.756;11.432;2023-03-19T12:55:39;30.45;;;19.25;;
23179;SDS011;11758;45.756;11.432;2023-03-19T12:58:13;28.50;;;18.60;;
23179;SDS011;11758;45.756;11.432;2023-03-19T13:00:47;28.27;;;18.20;;
23179;SDS011;11758;45.756;11.432;2023-03-19T13:03:21;30.33;;;18.38;;
23179;SDS011;11758;45.756;11.432;2023-03-19T13:11:03;30.30;;;19.88;;
23179;SDS011;11758;45.756;11.432;2023-03-19T13:13:33;34.95;;;20.83;;
23179;SDS011;11758;45.756;11.432;2023-03-19T13:16:08;34.28;;;20.92;;
23179;SDS011;11758;45.756;11.432;2023-03-19T13:21:22;35.80;;;22.25;;
23179;SDS011;11758;45.756;11.432;2023-03-19T13:23:50;34.58;;;20.50;;
23179;SDS011;11758;45.756;11.432;2023-03-19T13:26:24;35.78;;;23.00;;
23179;SDS011;11758;45.756;11.432;2023-03-19T13:31:20;36.95;;;22.42;;
23179;SDS011;11758;45.756;11.432;2023-03-19T13:33:50;35.22;;;21.10;;
23179;SDS011;11758;45.756;11.432;2023-03-19T13:36:18;35.83;;;21.77;;
23179;SDS011;11758;45.756;11.432;2023-03-19T13:38:46;31.73;;;20.90;;
23179;SDS011;11758;45.756;11.432;2023-03-19T13:43:52;32.60;;;20.75;;
23179;SDS011;11758;45.756;11.432;2023-03-19T13:54:06;32.80;;;20.75;;
23179;SDS011;11758;45.756;11.432;2023-03-19T13:56:54;30.05;;;19.85;;
23179;SDS011;11758;45.756;11.432;2023-03-19T13:59:21;30.98;;;19.63;;
23179;SDS011;11758;45.756;11.432;2023-03-19T14:01:48;29.52;;;20.00;;
23179;SDS011;11758;45.756;11.432;2023-03-19T14:04:16;29.77;;;19.70;;
23179;SDS011;11758;45.756;11.432;2023-03-19T14:06:47;35.00;;;20.13;;
23179;SDS011;11758;45.756;11.432;2023-03-19T14:14:49;31.88;;;19.92;;
23179;SDS011;11758;45.756;11.432;2023-03-19T14:19:51;30.70;;;18.83;;
23179;SDS011;11758;45.756;11.432;2023-03-19T14:22:19;29.95;;;19.60;;
23179;SDS011;11758;45.756;11.432;2023-03-19T14:27:34;29.98;;;19.92;;
23179;SDS011;11758;45.756;11.432;2023-03-19T14:30:01;31.52;;;19.50;;
23179;SDS011;11758;45.756;11.432;2023-03-19T14:32:33;28.55;;;18.95;;
23179;SDS011;11758;45.756;11.432;2023-03-19T14:35:05;30.73;;;19.45;;
23179;SDS011;11758;45.756;11.432;2023-03-19T14:42:26;31.25;;;19.63;;
23179;SDS011;11758;45.756;11.432;2023-03-19T14:50:26;29.20;;;19.55;;
23179;SDS011;11758;45.756;11.432;2023-03-19T14:55:34;28.88;;;19.30;;
23179;SDS011;11758;45.756;11.432;2023-03-19T14:58:03;31.70;;;20.50;;
23179;SDS011;11758;45.756;11.432;2023-03-19T15:00:44;32.80;;;20.20;;
23179;SDS011;11758;45.756;11.432;2023-03-19T15:03:30;33.17;;;19.38;;
23179;SDS011;11758;45.756;11.432;2023-03-19T15:05:59;31.83;;;20.65;;
23179;SDS011;11758;45.756;11.432;2023-03-19T15:08:32;27.95;;;19.13;;
23179;SDS011;11758;45.756;11.432;2023-03-19T15:16:37;29.92;;;19.23;;
23179;SDS011;11758;45.756;11.432;2023-03-19T15:19:08;32.13;;;20.42;;
23179;SDS011;11758;45.756;11.432;2023-03-19T15:21:37;34.28;;;19.70;;
23179;SDS011;11758;45.756;11.432;2023-03-19T15:24:05;28.27;;;19.67;;
23179;SDS011;11758;45.756;11.432;2023-03-19T15:26:33;30.88;;;20.35;;
23179;SDS011;11758;45.756;11.432;2023-03-19T15:29:00;30.80;;;20.30;;
23179;SDS011;11758;45.756;11.432;2023-03-19T15:31:46;34.88;;;21.33;;
23179;SDS011;11758;45.756;11.432;2023-03-19T15:34:17;30.13;;;20.83;;
23179;SDS011;11758;45.756;11.432;2023-03-19T15:36:44;37.10;;;21.17;;
23179;SDS011;11758;45.756;11.432;2023-03-19T15:39:11;30.20;;;20.75;;
23179;SDS011;11758;45.756;11.432;2023-03-19T15:41:41;29.35;;;20.80;;
23179;SDS011;11758;45.756;11.432;2023-03-19T15:44:10;32.05;;;21.00;;
23179;SDS011;11758;45.756;11.432;2023-03-19T15:46:39;32.40;;;20.88;;
23179;SDS011;11758;45.756;11.432;2023-03-19T15:52:04;31.77;;;21.45;;
23179;SDS011;11758;45.756;11.432;2023-03-19T15:54:37;35.97;;;21.70;;
23179;SDS011;11758;45.756;11.432;2023-03-19T15:57:04;31.85;;;20.33;;
23179;SDS011;11758;45.756;11.432;2023-03-19T15:59:32;27.92;;;20.33;;
23179;SDS011;11758;45.756;11.432;2023-03-19T16:01:59;32.38;;;20.55;;
23179;SDS011;11758;45.756;11.432;2023-03-19T16:04:26;32.95;;;21.13;;
23179;SDS011;11758;45.756;11.432;2023-03-19T16:06:53;32.33;;;19.75;;
23179;SDS011;11758;45.756;11.432;2023-03-19T16:09:25;30.33;;;21.10;;
23179;SDS011;11758;45.756;11.432;2023-03-19T16:11:52;32.40;;;22.15;;
23179;SDS011;11758;45.756;11.432;2023-03-19T16:17:16;32.28;;;20.55;;
23179;SDS011;11758;45.756;11.432;2023-03-19T16:19:51;34.55;;;20.13;;
23179;SDS011;11758;45.756;11.432;2023-03-19T16:22:26;34.97;;;20.05;;
23179;SDS011;11758;45.756;11.432;2023-03-19T16:24:54;37.30;;;23.88;;
23179;SDS011;11758;45.756;11.432;2023-03-19T16:27:24;32.10;;;21.30;;
23179;SDS011;11758;45.756;11.432;2023-03-19T16:29:55;32.72;;;21.70;;
23179;SDS011;11758;45.756;11.432;2023-03-19T16:32:23;33.17;;;22.23;;